createdAt,value
2018-11-22T00:01:32.270Z,89.66
2018-11-22T00:04:05.729Z,89.51
2018-11-22T00:06:39.228Z,89.50
2018-11-22T00:09:14.346Z,89.52
2018-11-22T00:11:48.325Z,89.53
2018-11-22T00:14:21.685Z,89.58
2018-11-22T00:16:55.006Z,89.65
2018-11-22T00:19:28.689Z,89.50
2018-11-22T00:22:01.951Z,89.59
2018-11-22T00:24:35.729Z,89.59
2018-11-22T00:27:07.986Z,89.55
2018-11-22T00:29:41.568Z,89.61
2018-11-22T00:32:15.095Z,89.60
2018-11-22T00:34:48.407Z,89.59
2018-11-22T00:37:21.619Z,89.63
2018-11-22T00:39:55.484Z,89.58
2018-11-22T00:42:29.004Z,89.53
2018-11-22T00:45:02.937Z,89.56
2018-11-22T00:47:35.111Z,89.50
2018-11-22T00:50:10.431Z,89.40
2018-11-22T00:52:44.186Z,89.42
2018-11-22T00:55:22.531Z,89.57
2018-11-22T00:57:56.284Z,89.67
2018-11-22T01:00:30.448Z,89.74
2018-11-22T01:03:02.589Z,89.76
2018-11-22T01:05:36.628Z,89.75
2018-11-22T01:08:10.688Z,89.76
2018-11-22T01:10:40.368Z,89.77
2018-11-22T01:13:17.428Z,89.73
2018-11-22T01:15:51.268Z,89.68
2018-11-22T01:18:23.340Z,89.77
2018-11-22T01:20:56.886Z,89.79
2018-11-22T01:23:32.366Z,89.94
2018-11-22T01:26:06.128Z,89.96
2018-11-22T01:28:40.148Z,90.05
2018-11-22T01:31:14.198Z,89.99
2018-11-22T01:33:47.778Z,90.09
2018-11-22T01:36:21.679Z,90.01
2018-11-22T01:38:55.181Z,90.10
2018-11-22T01:41:29.954Z,90.08
2018-11-22T01:44:03.416Z,89.98
2018-11-22T01:46:37.146Z,89.96
2018-11-22T01:49:13.274Z,90.01
2018-11-22T01:51:46.628Z,90.10
2018-11-22T01:54:20.465Z,90.25
2018-11-22T01:56:52.627Z,90.19
2018-11-22T01:59:26.809Z,90.17
2018-11-22T02:02:00.391Z,90.11
2018-11-22T02:04:36.699Z,90.27
2018-11-22T02:07:09.138Z,90.25
2018-11-22T02:09:42.881Z,90.28
2018-11-22T02:12:16.045Z,90.32
2018-11-22T02:14:48.174Z,90.29
2018-11-22T02:17:21.760Z,90.28
2018-11-22T02:19:58.009Z,90.34
2018-11-22T02:22:31.624Z,90.25
2018-11-22T02:25:05.350Z,90.37
2018-11-22T02:27:38.600Z,90.36
2018-11-22T02:30:17.444Z,90.45
2018-11-22T02:32:52.564Z,90.44
2018-11-22T02:35:26.198Z,90.51
2018-11-22T02:40:42.375Z,90.44
2018-11-22T02:43:12.283Z,90.55
2018-11-22T02:45:46.179Z,90.52
2018-11-22T02:48:19.387Z,90.60
2018-11-22T02:50:49.455Z,90.63
2018-11-22T02:53:23.115Z,90.53
2018-11-22T02:55:54.268Z,90.65
2018-11-22T02:58:28.275Z,90.66
2018-11-22T03:00:58.159Z,90.70
2018-11-22T03:03:31.665Z,90.73
2018-11-22T03:06:03.140Z,90.71
2018-11-22T03:08:38.293Z,90.70
2018-11-22T03:11:09.625Z,90.71
2018-11-22T03:13:43.299Z,90.81
2018-11-22T03:16:14.358Z,90.87
2018-11-22T03:18:48.643Z,90.88
2018-11-22T03:21:18.712Z,90.94
2018-11-22T03:23:52.505Z,90.95
2018-11-22T03:26:23.469Z,91.03
2018-11-22T03:28:58.229Z,91.03
2018-11-22T03:31:29.778Z,91.00
2018-11-22T03:34:01.835Z,91.06
2018-11-22T03:36:33.106Z,91.09
2018-11-22T03:39:06.964Z,91.06
2018-11-22T03:41:38.475Z,91.22
2018-11-22T03:44:12.397Z,91.25
2018-11-22T03:46:43.460Z,91.24
2018-11-22T03:49:16.728Z,91.23
2018-11-22T03:51:47.702Z,91.20
2018-11-22T03:54:21.874Z,91.21
2018-11-22T03:56:53.198Z,91.31
2018-11-22T03:59:25.477Z,91.36
2018-11-22T04:01:57.040Z,91.40
2018-11-22T04:04:30.883Z,91.45
2018-11-22T04:07:01.892Z,91.39
2018-11-22T04:09:35.951Z,91.44
2018-11-22T04:12:07.201Z,91.38
2018-11-22T04:14:41.137Z,91.46
2018-11-22T04:17:11.276Z,91.47
2018-11-22T04:19:47.746Z,91.50
2018-11-22T04:22:17.436Z,91.48
2018-11-22T04:24:50.690Z,91.53
2018-11-22T04:27:20.462Z,91.53
2018-11-22T04:29:54.379Z,91.54
2018-11-22T04:32:25.941Z,91.54
2018-11-22T04:34:59.680Z,91.48
2018-11-22T04:37:31.064Z,91.49
2018-11-22T04:40:04.538Z,91.51
2018-11-22T04:42:36.008Z,91.54
2018-11-22T04:45:10.388Z,91.54
2018-11-22T04:47:42.077Z,91.50
2018-11-22T04:50:17.207Z,91.56
2018-11-22T04:52:49.365Z,91.54
2018-11-22T04:55:23.030Z,91.58
2018-11-22T04:57:57.925Z,91.58
2018-11-22T05:00:28.709Z,91.54
2018-11-22T05:02:59.778Z,91.57
2018-11-22T05:05:32.311Z,91.58
2018-11-22T05:08:01.977Z,91.61
2018-11-22T05:10:35.321Z,91.58
2018-11-22T05:13:04.955Z,91.59
2018-11-22T05:15:38.312Z,91.54
2018-11-22T05:18:08.185Z,91.61
2018-11-22T05:20:42.078Z,91.50
2018-11-22T05:23:13.591Z,91.56
2018-11-22T05:25:50.957Z,91.67
2018-11-22T05:28:22.130Z,91.68
2018-11-22T05:30:58.925Z,91.64
2018-11-22T05:33:30.440Z,91.59
2018-11-22T05:36:02.497Z,91.57
2018-11-22T05:38:33.643Z,91.49
2018-11-22T05:41:07.805Z,91.57
2018-11-22T05:43:39.215Z,91.61
2018-11-22T05:46:11.658Z,91.65
2018-11-22T05:48:43.856Z,91.63
2018-11-22T05:51:17.381Z,91.59
2018-11-22T05:56:17.599Z,91.58
2018-11-22T05:58:51.523Z,91.59
2018-11-22T06:01:22.928Z,91.50
2018-11-22T06:03:56.256Z,91.59
2018-11-22T06:06:27.541Z,91.38
2018-11-22T06:09:01.642Z,91.53
2018-11-22T06:11:33.135Z,91.55
2018-11-22T06:14:05.192Z,91.39
2018-11-22T06:16:36.605Z,91.53
2018-11-22T06:19:10.339Z,91.57
2018-11-22T06:21:41.672Z,91.57
2018-11-22T06:24:18.442Z,91.46
2018-11-22T06:26:49.539Z,91.50
2018-11-22T06:29:23.250Z,91.29
2018-11-22T06:31:55.020Z,91.41
2018-11-22T06:34:28.955Z,91.42
2018-11-22T06:37:00.152Z,91.44
2018-11-22T06:39:34.103Z,91.42
2018-11-22T06:42:05.352Z,91.41
2018-11-22T06:44:39.493Z,91.34
2018-11-22T06:47:11.124Z,91.28
2018-11-22T06:49:45.085Z,91.35
2018-11-22T06:52:16.383Z,91.36
2018-11-22T06:54:49.976Z,91.29
2018-11-22T06:57:21.509Z,91.30
2018-11-22T06:59:55.265Z,91.12
2018-11-22T07:02:26.515Z,91.29
2018-11-22T07:05:00.253Z,91.31
2018-11-22T07:07:31.201Z,91.25
2018-11-22T07:10:03.273Z,91.22
2018-11-22T07:12:34.868Z,91.13
2018-11-22T07:17:52.228Z,91.01
2018-11-22T07:20:24.269Z,90.99
2018-11-22T07:22:57.201Z,90.75
2018-11-22T07:25:33.038Z,90.83
2018-11-22T07:30:42.553Z,90.88
2018-11-22T07:33:14.217Z,90.85
2018-11-22T07:38:25.332Z,90.76
2018-11-22T07:40:57.640Z,90.77
2018-11-22T07:43:28.985Z,90.83
2018-11-22T07:46:05.979Z,90.85
2018-11-22T07:48:37.486Z,90.55
2018-11-22T07:51:11.417Z,90.54
2018-11-22T07:53:42.459Z,90.68
2018-11-22T07:56:16.375Z,90.62
2018-11-22T07:58:47.383Z,90.61
2018-11-22T08:01:17.667Z,90.39
2018-11-22T08:04:06.574Z,90.58
2018-11-22T08:06:36.758Z,90.50
2018-11-22T08:09:08.824Z,90.49
2018-11-22T08:11:39.394Z,90.38
2018-11-22T08:14:09.839Z,90.35
2018-11-22T08:16:40.072Z,90.23
2018-11-22T08:21:45.401Z,90.17
2018-11-22T08:24:16.460Z,90.10
2018-11-22T08:26:51.167Z,89.99
2018-11-22T08:29:23.763Z,89.88
2018-11-22T08:32:01.803Z,89.88
2018-11-22T08:37:09.436Z,89.75
2018-11-22T08:37:18.556Z,89.62
2018-11-22T08:39:49.496Z,89.79
2018-11-22T08:47:36.869Z,89.35
2018-11-22T08:50:08.318Z,88.99
2018-11-22T08:52:43.455Z,88.46
2018-11-22T08:55:15.252Z,88.89
2018-11-22T08:57:47.880Z,88.79
2018-11-22T09:00:20.461Z,88.74
2018-11-22T09:05:30.389Z,88.64
2018-11-22T09:08:04.684Z,88.62
2018-11-22T09:10:36.147Z,88.36
2018-11-22T09:13:11.162Z,88.14
2018-11-22T09:15:40.913Z,87.55
2018-11-22T09:21:05.948Z,88.17
2018-11-22T09:23:38.486Z,87.91
2018-11-22T09:26:11.858Z,87.24
2018-11-22T09:28:56.388Z,87.35
2018-11-22T09:31:21.948Z,87.56
2018-11-22T09:36:30.799Z,86.45
2018-11-22T09:39:20.873Z,87.06
2018-11-22T09:44:22.726Z,86.07
2018-11-22T09:46:57.023Z,86.64
2018-11-22T09:49:38.872Z,86.21
2018-11-22T09:52:10.893Z,85.90
2018-11-22T09:54:44.613Z,86.20
2018-11-22T10:08:01.647Z,85.38
2018-11-22T10:13:56.156Z,85.26
2018-11-22T12:18:17.572Z,79.46
2018-11-22T12:21:08.404Z,80.63
2018-11-22T12:23:37.974Z,79.55
2018-11-22T12:26:07.158Z,80.56
2018-11-22T12:28:36.066Z,80.31
2018-11-22T12:31:06.722Z,79.93
2018-11-22T12:33:41.177Z,80.81
2018-11-22T12:36:15.160Z,79.48
2018-11-22T12:38:44.787Z,79.87
2018-11-22T12:41:14.860Z,79.69
2018-11-22T12:43:44.219Z,80.18
2018-11-22T12:46:13.199Z,80.09
2018-11-22T12:48:42.520Z,79.99
2018-11-22T12:51:13.503Z,80.14
2018-11-22T12:53:42.388Z,80.48
2018-11-22T12:56:11.803Z,79.55
2018-11-22T12:58:40.984Z,79.87
2018-11-22T13:01:09.890Z,80.20
2018-11-22T13:03:38.999Z,79.55
2018-11-22T13:06:07.968Z,80.14
2018-11-22T13:08:37.121Z,80.02
2018-11-22T13:11:06.544Z,79.96
2018-11-22T13:13:35.503Z,80.25
2018-11-22T13:16:04.568Z,80.27
2018-11-22T13:18:33.435Z,80.13
2018-11-22T13:21:02.376Z,79.70
2018-11-22T13:23:31.404Z,80.64
2018-11-22T13:26:00.276Z,80.14
2018-11-22T13:28:29.279Z,80.36
2018-11-22T13:30:58.316Z,80.24
2018-11-22T13:33:28.656Z,79.79
2018-11-22T13:35:58.151Z,80.21
2018-11-22T13:38:27.158Z,80.60
2018-11-22T13:40:56.217Z,80.39
2018-11-22T13:43:25.237Z,80.45
2018-11-22T13:45:54.146Z,80.77
2018-11-22T13:48:23.126Z,80.19
2018-11-22T13:50:52.096Z,80.54
2018-11-22T13:53:22.404Z,80.19
2018-11-22T13:55:51.315Z,80.69
2018-11-22T13:58:20.281Z,80.92
2018-11-22T14:00:49.184Z,80.80
2018-11-22T14:03:20.371Z,80.77
2018-11-22T14:05:49.294Z,80.45
2018-11-22T14:08:18.248Z,80.93
2018-11-22T14:10:47.207Z,80.82
2018-11-22T14:13:29.279Z,80.25
2018-11-22T14:15:58.222Z,80.73
2018-11-22T14:18:27.274Z,80.90
2018-11-22T14:20:56.260Z,80.77
2018-11-22T14:23:25.448Z,80.74
2018-11-22T14:25:54.815Z,80.88
2018-11-22T14:28:24.172Z,81.71
2018-11-22T14:30:53.155Z,81.10
2018-11-22T14:33:29.558Z,81.23
2018-11-22T14:36:01.536Z,81.82
2018-11-22T14:38:30.860Z,81.78
2018-11-22T14:40:59.835Z,81.42
2018-11-22T14:43:36.340Z,82.02
2018-11-22T14:46:05.444Z,81.33
2018-11-22T14:48:34.711Z,81.75
2018-11-22T14:51:15.812Z,82.28
2018-11-22T14:54:05.691Z,82.06
2018-11-22T14:56:35.040Z,81.76
2018-11-22T14:59:04.014Z,82.17
2018-11-22T15:01:33.451Z,82.48
2018-11-22T15:04:13.268Z,82.42
2018-11-22T15:06:42.216Z,82.46
2018-11-22T15:09:11.443Z,82.06
2018-11-22T15:11:40.318Z,82.61
2018-11-22T15:14:12.500Z,82.15
2018-11-22T15:16:41.350Z,82.48
2018-11-22T15:19:10.327Z,82.29
2018-11-22T15:21:39.200Z,82.62
2018-11-22T15:24:08.132Z,83.10
2018-11-22T15:26:37.006Z,82.54
2018-11-22T15:29:06.039Z,83.05
2018-11-22T15:31:35.034Z,83.16
2018-11-22T15:34:05.089Z,82.83
2018-11-22T15:36:33.952Z,83.54
2018-11-22T15:39:03.076Z,83.68
2018-11-22T15:41:32.040Z,83.25
2018-11-22T15:44:00.996Z,83.39
2018-11-22T15:46:29.955Z,83.27
2018-11-22T15:48:58.836Z,83.55
2018-11-22T15:51:27.772Z,83.31
2018-11-22T15:53:58.671Z,83.54
2018-11-22T15:56:27.687Z,83.78
2018-11-22T15:58:56.606Z,83.89
2018-11-22T16:01:26.600Z,83.64
2018-11-22T16:04:03.767Z,84.08
2018-11-22T16:06:32.911Z,84.13
2018-11-22T16:09:01.866Z,83.71
2018-11-22T16:11:30.848Z,84.00
2018-11-22T16:14:04.760Z,84.15
2018-11-22T16:16:33.763Z,84.48
2018-11-22T16:19:02.699Z,84.43
2018-11-22T16:21:31.943Z,84.44
2018-11-22T16:24:01.071Z,84.54
2018-11-22T16:26:30.605Z,84.13
2018-11-22T16:28:59.579Z,84.46
2018-11-22T16:31:29.335Z,84.33
2018-11-22T16:34:11.234Z,84.37
2018-11-22T16:36:40.243Z,84.42
2018-11-22T16:39:10.400Z,84.87
2018-11-22T16:41:39.444Z,84.79
2018-11-22T16:44:08.586Z,85.04
2018-11-22T16:46:37.591Z,84.56
2018-11-22T16:49:07.514Z,85.15
2018-11-22T16:51:36.581Z,84.72
2018-11-22T16:54:08.864Z,84.85
2018-11-22T16:56:37.840Z,84.91
2018-11-22T16:59:06.904Z,85.23
2018-11-22T17:01:35.931Z,85.01
2018-11-22T17:04:05.015Z,85.50
2018-11-22T17:06:34.040Z,85.16
2018-11-22T17:09:03.128Z,85.06
2018-11-22T17:11:33.387Z,85.40
2018-11-22T17:14:01.226Z,85.79
2018-11-22T17:16:30.626Z,85.24
2018-11-22T17:18:59.672Z,85.74
2018-11-22T17:21:28.699Z,85.73
2018-11-22T17:23:57.892Z,85.24
2018-11-22T17:26:26.842Z,85.34
2018-11-22T17:28:55.845Z,85.57
2018-11-22T17:31:24.740Z,85.42
2018-11-22T17:33:54.533Z,85.66
2018-11-22T17:36:23.963Z,85.79
2018-11-22T17:38:52.984Z,86.09
2018-11-22T17:41:22.056Z,86.13
2018-11-22T17:43:51.109Z,86.15
2018-11-22T17:46:20.231Z,85.77
2018-11-22T17:48:49.194Z,86.08
2018-11-22T17:51:18.137Z,86.38
2018-11-22T17:53:47.171Z,86.08
2018-11-22T17:56:16.270Z,86.23
2018-11-22T17:58:45.238Z,85.92
2018-11-22T18:01:14.730Z,86.40
2018-11-22T18:03:43.394Z,86.63
2018-11-22T18:06:12.439Z,86.71
2018-11-22T18:08:41.591Z,86.75
2018-11-22T18:11:10.611Z,86.47
2018-11-22T18:13:39.670Z,86.45
2018-11-22T18:16:08.738Z,86.95
2018-11-22T18:18:37.801Z,86.49
2018-11-22T18:21:07.519Z,86.27
2018-11-22T18:23:36.796Z,86.72
2018-11-22T18:26:06.161Z,86.67
2018-11-22T18:28:35.567Z,86.67
2018-11-22T18:31:04.627Z,87.03
2018-11-22T18:33:33.671Z,87.11
2018-11-22T18:36:02.731Z,87.71
2018-11-22T18:38:31.868Z,87.72
2018-11-22T18:41:01.776Z,87.12
2018-11-22T18:43:30.390Z,87.25
2018-11-22T18:45:59.594Z,88.42
2018-11-22T18:48:28.958Z,87.77
2018-11-22T18:50:58.332Z,87.72
2018-11-22T18:53:27.388Z,88.74
2018-11-22T18:55:56.458Z,88.80
2018-11-22T18:58:25.521Z,88.17
2018-11-22T19:00:54.487Z,88.26
2018-11-22T19:03:23.475Z,88.01
2018-11-22T19:05:52.484Z,88.69
2018-11-22T19:08:21.570Z,88.74
2018-11-22T19:10:50.689Z,88.85
2018-11-22T19:13:19.816Z,88.40
2018-11-22T19:15:49.681Z,89.03
2018-11-22T19:18:19.350Z,88.54
2018-11-22T19:20:48.409Z,88.71
2018-11-22T19:23:17.901Z,88.72
2018-11-22T19:25:46.993Z,88.80
2018-11-22T19:28:16.614Z,89.46
2018-11-22T19:30:46.914Z,88.93
2018-11-22T19:33:17.412Z,89.00
2018-11-22T19:35:48.365Z,89.51
2018-11-22T19:38:17.331Z,89.28
2018-11-22T19:40:46.384Z,89.03
2018-11-22T19:43:15.528Z,89.58
2018-11-22T19:45:46.771Z,89.13
2018-11-22T19:48:15.928Z,89.59
2018-11-22T19:50:45.308Z,89.13
2018-11-22T19:53:15.421Z,89.34
2018-11-22T19:55:44.913Z,89.69
2018-11-22T19:58:15.213Z,89.21
2018-11-22T20:00:44.472Z,89.44
2018-11-22T20:03:13.649Z,89.76
2018-11-22T20:05:43.275Z,89.68
2018-11-22T20:08:14.231Z,89.43
2018-11-22T20:10:44.574Z,89.92
2018-11-22T20:13:13.736Z,89.97
2018-11-22T20:15:42.934Z,90.11
2018-11-22T20:18:12.734Z,89.51
2018-11-22T20:20:43.060Z,90.15
2018-11-22T20:23:11.131Z,89.54
2018-11-22T20:25:40.460Z,90.04
2018-11-22T20:28:09.627Z,89.72
2018-11-22T20:30:40.479Z,89.72
2018-11-22T20:33:09.535Z,90.30
2018-11-22T20:35:38.556Z,90.25
2018-11-22T20:38:07.717Z,89.84
2018-11-22T20:40:36.818Z,90.51
2018-11-22T20:43:07.081Z,90.09
2018-11-22T20:45:40.744Z,89.82
2018-11-22T20:48:06.514Z,90.19
2018-11-22T20:50:36.051Z,89.90
2018-11-22T20:53:05.171Z,90.22
2018-11-22T20:55:35.774Z,89.97
2018-11-22T20:58:05.979Z,90.60
2018-11-22T21:00:36.922Z,90.45
2018-11-22T21:03:06.315Z,90.52
2018-11-22T21:05:35.350Z,90.12
2018-11-22T21:08:04.339Z,90.63
2018-11-22T21:10:34.000Z,90.03
2018-11-22T21:13:03.080Z,90.28
2018-11-22T21:15:33.039Z,89.91
2018-11-22T21:18:06.576Z,89.91
2018-11-22T21:20:37.939Z,90.46
2018-11-22T21:23:07.027Z,90.33
2018-11-22T21:25:35.988Z,90.43
2018-11-22T21:28:05.285Z,89.65
2018-11-22T21:30:35.749Z,90.04
2018-11-22T21:33:04.854Z,89.30
2018-11-22T21:35:34.387Z,89.20
2018-11-22T21:38:04.627Z,89.55
2018-11-22T21:40:34.266Z,89.31
2018-11-22T21:43:03.295Z,89.30
2018-11-22T21:45:33.346Z,89.76
2018-11-22T21:48:02.338Z,89.50
2018-11-22T21:50:31.419Z,89.95
2018-11-22T21:53:00.558Z,90.53
2018-11-22T21:55:30.152Z,90.80
2018-11-22T21:58:00.363Z,90.28
2018-11-22T22:00:40.602Z,90.93
2018-11-22T22:03:11.212Z,90.34
2018-11-22T22:05:43.180Z,90.74
2018-11-22T22:08:12.328Z,90.37
2018-11-22T22:10:41.420Z,90.72
2018-11-22T22:13:10.682Z,90.52
2018-11-22T22:15:40.020Z,91.52
2018-11-22T22:18:09.672Z,90.96
2018-11-22T22:20:38.856Z,90.79
2018-11-22T22:23:13.232Z,91.37
2018-11-22T22:25:37.312Z,90.82
2018-11-22T22:28:06.403Z,90.80
2018-11-22T22:30:35.956Z,90.99
2018-11-22T22:33:06.226Z,90.95
2018-11-22T22:35:35.474Z,91.51
2018-11-22T22:38:04.545Z,92.00
2018-11-22T22:40:34.176Z,91.80
2018-11-22T22:43:03.268Z,91.61
2018-11-22T22:45:33.323Z,92.32
2018-11-22T22:48:02.367Z,92.45
2018-11-22T22:50:31.965Z,92.24
2018-11-22T22:53:01.560Z,91.56
2018-11-22T22:55:31.391Z,92.23
2018-11-22T22:58:00.530Z,92.09
2018-11-22T23:00:35.062Z,92.35
2018-11-22T23:03:05.652Z,91.74
2018-11-22T23:05:34.935Z,92.24
2018-11-22T23:08:04.089Z,91.78
2018-11-22T23:10:33.286Z,91.81
2018-11-22T23:13:03.031Z,92.54
2018-11-22T23:15:32.581Z,92.59
2018-11-22T23:18:01.596Z,91.97
2018-11-22T23:20:32.916Z,92.43
2018-11-22T23:23:01.994Z,92.77
2018-11-22T23:25:31.216Z,92.49
2018-11-22T23:28:00.278Z,92.23
2018-11-22T23:30:33.376Z,91.87
2018-11-22T23:33:03.913Z,92.65
2018-11-22T23:35:33.054Z,92.40
2018-11-22T23:38:02.200Z,92.89
2018-11-22T23:40:32.192Z,92.60
2018-11-22T23:43:01.355Z,92.40
2018-11-22T23:45:31.525Z,92.64
2018-11-22T23:48:00.696Z,92.91
2018-11-22T23:50:30.966Z,92.74
2018-11-22T23:53:01.096Z,92.85
2018-11-22T23:55:30.300Z,93.07
2018-11-22T23:57:59.413Z,92.24
